createdAt,value
2018-04-16T07:11:49.059Z,48.90
2018-04-16T07:14:17.636Z,46.43
2018-04-16T07:16:45.316Z,44.40
2018-04-16T07:19:14.052Z,48.10
2018-04-16T07:21:41.766Z,47.10
2018-04-16T07:24:10.200Z,45.63
2018-04-16T07:26:37.880Z,49.43
2018-04-16T07:29:05.550Z,49.27
2018-04-16T07:31:33.232Z,45.70
2018-04-16T07:34:01.660Z,51.07
2018-04-16T07:36:29.378Z,47.93
2018-04-16T07:38:56.977Z,43.93
2018-04-16T07:41:24.630Z,41.23
2018-04-16T07:43:52.461Z,45.30
2018-04-16T07:46:20.902Z,60.47
2018-04-16T07:48:48.571Z,47.07
2018-04-16T07:51:16.248Z,47.57
2018-04-16T07:53:44.660Z,47.00
2018-04-16T07:56:12.319Z,47.03
2018-04-16T07:58:39.986Z,49.77
2018-04-16T08:01:07.643Z,43.97
2018-04-16T08:03:36.066Z,43.50
2018-04-16T08:06:03.763Z,48.73
2018-04-16T08:08:31.462Z,52.90
2018-04-16T08:10:59.238Z,47.60
2018-04-16T08:13:26.939Z,44.43
2018-04-16T08:15:55.338Z,42.77
2018-04-16T08:18:23.031Z,49.67
2018-04-16T08:20:50.786Z,45.17
2018-04-16T08:23:18.473Z,44.47
2018-04-16T08:25:46.149Z,45.53
2018-04-16T08:28:13.811Z,41.87
2018-04-16T08:30:42.227Z,47.00
2018-04-16T08:33:09.899Z,40.67
2018-04-16T08:35:37.604Z,39.87
2018-04-16T08:38:06.051Z,49.03
2018-04-16T08:40:33.714Z,42.53
2018-04-16T08:43:01.371Z,43.57
2018-04-16T08:45:29.026Z,44.50
2018-04-16T08:47:56.715Z,42.53
2018-04-16T08:50:25.002Z,44.20
2018-04-16T08:52:53.409Z,39.73
2018-04-16T08:55:21.164Z,40.70
2018-04-16T08:57:48.845Z,42.37
2018-04-16T09:00:16.490Z,45.73
2018-04-16T09:02:44.157Z,40.30
2018-04-16T09:05:11.878Z,36.60
2018-04-16T09:07:39.511Z,35.27
2018-04-16T09:10:07.196Z,34.80
2018-04-16T09:12:34.912Z,38.67
2018-04-16T09:15:02.578Z,35.93
2018-04-16T09:17:30.305Z,37.60
2018-04-16T09:19:58.806Z,37.67
2018-04-16T09:22:26.505Z,32.20
2018-04-16T09:24:54.185Z,34.23
2018-04-16T09:27:21.855Z,36.43
2018-04-16T09:29:50.248Z,40.43
2018-04-16T09:32:17.925Z,32.57
2018-04-16T09:34:45.591Z,36.60
2018-04-16T09:37:13.216Z,37.80
2018-04-16T09:39:41.646Z,32.87
2018-04-16T09:42:09.327Z,31.40
2018-04-16T09:44:36.978Z,31.23
2018-04-16T09:47:04.658Z,33.40
2018-04-16T09:49:32.336Z,36.50
2018-04-16T09:52:00.761Z,35.57
2018-04-16T09:54:28.426Z,36.27
2018-04-16T09:56:56.098Z,34.40
2018-04-16T09:59:23.747Z,41.07
2018-04-16T10:01:51.418Z,34.30
2018-04-16T10:04:19.081Z,35.03
2018-04-16T10:06:46.725Z,37.40
2018-04-16T10:09:14.418Z,33.67
2018-04-16T10:11:42.106Z,40.30
2018-04-16T10:14:09.763Z,34.33
2018-04-16T10:16:38.174Z,33.53
2018-04-16T10:19:05.855Z,33.80
2018-04-16T10:21:33.520Z,35.33
2018-04-16T10:24:01.192Z,29.13
2018-04-16T10:26:28.907Z,36.73
2018-04-16T10:28:57.280Z,34.13
2018-04-16T10:31:25.024Z,35.07
2018-04-16T10:33:53.459Z,35.53
2018-04-16T10:36:21.109Z,29.83
2018-04-16T10:38:48.791Z,32.93
2018-04-16T10:41:16.445Z,35.67
2018-04-16T10:43:44.070Z,29.67
2018-04-16T10:46:11.726Z,32.60
2018-04-16T10:48:39.397Z,35.13
2018-04-16T10:51:07.054Z,30.97
2018-04-16T10:53:34.721Z,31.63
2018-04-16T10:56:02.377Z,30.70
2018-04-16T10:58:30.038Z,30.63
2018-04-16T11:00:57.746Z,39.53
2018-04-16T11:03:25.519Z,36.60
2018-04-16T11:05:53.969Z,35.43
2018-04-16T11:08:21.645Z,38.70
2018-04-16T11:10:49.306Z,27.67
2018-04-16T11:13:17.755Z,33.23
2018-04-16T11:15:45.421Z,32.03
2018-04-16T11:18:13.100Z,32.73
2018-04-16T11:20:41.555Z,29.60
2018-04-16T11:23:09.290Z,31.27
2018-04-16T11:25:36.968Z,27.30
2018-04-16T11:28:04.802Z,36.47
2018-04-16T11:30:32.547Z,26.73
2018-04-16T11:33:00.291Z,27.40
2018-04-16T11:35:27.930Z,21.77
2018-04-16T11:37:55.693Z,27.77
2018-04-16T11:40:23.377Z,23.63
2018-04-16T11:42:51.056Z,28.47
2018-04-16T11:45:18.806Z,30.97
2018-04-16T11:47:47.346Z,28.03
2018-04-16T11:50:21.636Z,27.93
2018-04-16T11:52:49.378Z,28.63
2018-04-16T11:55:20.103Z,26.87
2018-04-16T11:57:47.813Z,32.87
2018-04-16T12:00:15.497Z,29.83
2018-04-16T12:02:43.166Z,33.53
2018-04-16T12:05:10.854Z,30.80
2018-04-16T12:07:39.289Z,32.87
2018-04-16T12:10:07.006Z,30.20
2018-04-16T12:12:34.684Z,26.33
2018-04-16T12:15:03.166Z,29.93
2018-04-16T12:17:30.874Z,30.93
2018-04-16T12:19:58.563Z,28.23
2018-04-16T12:22:26.238Z,33.23
2018-04-16T12:24:55.128Z,22.87
2018-04-16T12:27:22.820Z,33.03
2018-04-16T12:29:50.475Z,29.70
2018-04-16T12:32:20.247Z,27.57
2018-04-16T12:34:50.758Z,22.57
2018-04-16T12:37:19.162Z,20.53
2018-04-16T12:39:46.882Z,23.90
2018-04-16T12:42:15.573Z,29.23
2018-04-16T12:44:43.999Z,25.47
2018-04-16T12:47:11.674Z,23.10
2018-04-16T12:49:40.235Z,20.47
2018-04-16T12:52:07.887Z,17.27
2018-04-16T12:54:35.598Z,16.17
2018-04-16T12:57:03.329Z,16.47
2018-04-16T12:59:31.033Z,14.57
2018-04-16T13:01:59.586Z,16.07
2018-04-16T13:04:27.252Z,16.53
2018-04-16T13:06:54.940Z,21.73
2018-04-16T13:09:23.432Z,16.07
2018-04-16T13:11:51.134Z,16.43
2018-04-16T13:14:18.758Z,18.00
2018-04-16T13:16:48.373Z,17.90
2018-04-16T13:19:16.038Z,23.80
2018-04-16T13:21:43.716Z,29.30
2018-04-16T13:24:11.394Z,32.20
2018-04-16T13:26:39.055Z,27.03
2018-04-16T13:29:06.696Z,36.80
2018-04-16T13:31:34.364Z,30.80
2018-04-16T13:34:02.043Z,35.17
2018-04-16T13:36:29.886Z,34.07
2018-04-16T13:38:57.714Z,43.93
2018-04-16T13:41:25.709Z,32.57
2018-04-16T13:43:53.616Z,38.80
2018-04-16T13:46:21.612Z,31.10
2018-04-16T13:48:49.531Z,38.90
2018-04-16T13:51:18.323Z,34.97
2018-04-16T13:53:46.239Z,32.30
2018-04-16T13:56:14.283Z,31.40
2018-04-16T13:58:41.945Z,39.37
2018-04-16T14:01:09.593Z,30.53
2018-04-16T14:03:37.270Z,35.43
2018-04-16T14:06:05.681Z,41.93
2018-04-16T14:08:33.376Z,35.73
2018-04-16T14:11:01.073Z,35.00
2018-04-16T14:13:29.480Z,28.80
2018-04-16T14:15:57.159Z,39.43
2018-04-16T14:18:24.799Z,32.13
2018-04-16T14:20:52.833Z,35.20
2018-04-16T14:23:21.264Z,34.27
2018-04-16T14:25:48.942Z,40.13
2018-04-16T14:28:16.611Z,34.30
2018-04-16T14:30:44.285Z,33.57
2018-04-16T14:33:11.962Z,26.80
2018-04-16T14:35:40.347Z,35.70
2018-04-16T14:38:08.802Z,26.33
2018-04-16T14:40:36.456Z,23.50
2018-04-16T14:43:04.083Z,29.20
2018-04-16T14:45:31.795Z,26.20
2018-04-16T14:48:00.325Z,28.00
2018-04-16T14:50:28.017Z,25.93
2018-04-16T14:52:55.789Z,26.03
2018-04-16T14:55:23.499Z,28.40
2018-04-16T14:57:51.659Z,23.57
2018-04-16T15:00:19.347Z,27.00
2018-04-16T15:02:47.057Z,26.70
2018-04-16T15:05:14.694Z,25.33
2018-04-16T15:07:42.356Z,24.23
2018-04-16T15:10:10.036Z,25.10
2018-04-16T15:12:38.431Z,21.27
2018-04-16T15:15:06.097Z,27.90
2018-04-16T15:17:33.765Z,23.70
2018-04-16T15:20:02.182Z,22.23
2018-04-16T15:22:30.793Z,17.60
2018-04-16T15:24:59.225Z,23.17
2018-04-16T15:27:26.853Z,21.33
2018-04-16T15:29:54.522Z,21.93
2018-04-16T15:32:22.665Z,19.90
2018-04-16T15:34:51.052Z,16.20
2018-04-16T15:37:18.759Z,16.73
2018-04-16T15:39:46.477Z,18.10
2018-04-16T15:42:14.152Z,14.83
2018-04-16T15:44:41.851Z,15.20
2018-04-16T15:47:09.568Z,15.20
2018-04-16T15:49:37.199Z,14.70
2018-04-16T15:52:05.673Z,12.97
2018-04-16T15:54:34.115Z,14.43
2018-04-16T15:57:01.813Z,12.63
2018-04-16T15:59:29.545Z,14.67
2018-04-16T16:01:57.207Z,12.17
2018-04-16T16:04:24.881Z,15.37
2018-04-16T16:06:52.550Z,14.77
2018-04-16T16:09:20.213Z,15.57
2018-04-16T16:11:47.835Z,17.40
2018-04-16T16:14:15.521Z,18.27
2018-04-16T16:16:43.218Z,18.33
2018-04-16T16:19:10.864Z,15.20
2018-04-16T16:21:39.312Z,13.50
2018-04-16T16:24:08.864Z,16.73
2018-04-16T16:26:36.505Z,15.13
2018-04-16T16:29:04.954Z,12.27
2018-04-16T16:31:32.625Z,11.90
2018-04-16T16:34:00.326Z,13.43
2018-04-16T16:36:28.010Z,13.20
2018-04-16T16:38:55.696Z,16.70
2018-04-16T16:41:23.378Z,10.33
2018-04-16T16:43:51.086Z,17.60
2018-04-16T16:46:18.762Z,14.57
2018-04-16T16:48:46.411Z,12.30
2018-04-16T16:51:14.102Z,13.53
2018-04-16T16:53:41.809Z,11.50
2018-04-16T16:56:09.505Z,12.83
2018-04-16T16:58:37.217Z,13.83
2018-04-16T17:01:04.880Z,9.77
2018-04-16T17:03:33.306Z,14.33
2018-04-16T17:06:01.067Z,12.17
2018-04-16T17:08:28.745Z,10.83
2018-04-16T17:10:56.401Z,11.57
2018-04-16T17:13:24.081Z,9.70
2018-04-16T17:15:51.779Z,11.53
2018-04-16T17:18:19.418Z,12.07
2018-04-16T17:20:47.850Z,7.67
2018-04-16T17:23:15.535Z,8.13
2018-04-16T17:25:43.200Z,10.70
2018-04-16T17:28:10.918Z,8.60
2018-04-16T17:30:38.618Z,6.60
2018-04-16T17:33:06.301Z,8.03
2018-04-16T17:35:34.714Z,6.00
2018-04-16T17:38:02.373Z,5.50
2018-04-16T17:40:29.997Z,5.83
2018-04-16T17:42:58.435Z,6.27
2018-04-16T17:45:26.105Z,7.67
2018-04-16T17:47:53.734Z,3.37
2018-04-16T17:50:21.390Z,4.27
2018-04-16T17:52:49.281Z,4.80
2018-04-16T17:55:16.955Z,5.80
2018-04-16T17:57:44.627Z,6.83
2018-04-16T18:00:12.414Z,4.83
2018-04-16T18:02:40.125Z,4.80
2018-04-16T18:05:07.801Z,7.73
2018-04-16T18:07:35.507Z,5.80
2018-04-16T18:10:03.257Z,8.10
2018-04-16T18:12:30.986Z,6.67
2018-04-16T18:14:59.683Z,6.17
2018-04-16T18:17:27.415Z,5.90
2018-04-16T18:19:55.233Z,7.53
2018-04-16T18:22:22.999Z,7.07
2018-04-16T18:24:50.643Z,9.00
2018-04-16T18:27:18.607Z,6.60
2018-04-16T18:29:46.482Z,7.37
2018-04-16T18:32:14.889Z,6.17
2018-04-16T18:34:42.567Z,6.83
2018-04-16T18:37:10.597Z,7.40
2018-04-16T18:39:38.404Z,7.70
2018-04-16T18:42:06.071Z,8.77
2018-04-16T18:44:33.756Z,8.17
2018-04-16T18:47:02.276Z,9.93
2018-04-16T18:49:30.735Z,9.60
2018-04-16T18:51:59.158Z,7.50
2018-04-16T18:54:27.067Z,9.00
2018-04-16T18:56:54.754Z,8.50
2018-04-16T18:59:22.654Z,6.27
2018-04-16T19:01:50.560Z,6.53
2018-04-16T19:04:19.525Z,6.50
2018-04-16T19:06:47.425Z,6.50
2018-04-16T19:09:15.424Z,7.83
2018-04-16T19:11:43.202Z,6.23
2018-04-16T19:14:10.884Z,5.87
2018-04-16T19:16:38.643Z,10.40
2018-04-16T19:19:06.318Z,8.47
2018-04-16T19:21:39.605Z,4.70
2018-04-16T19:24:07.268Z,7.00
2018-04-16T19:26:36.121Z,4.70
2018-04-16T19:29:03.750Z,5.00
2018-04-16T19:31:31.418Z,6.73
2018-04-16T19:34:04.622Z,5.60
2018-04-16T19:36:32.355Z,5.67
2018-04-16T19:39:00.263Z,5.27
2018-04-16T19:44:27.308Z,5.60
2018-04-16T19:46:55.126Z,4.73
2018-04-16T19:49:28.446Z,4.80
2018-04-16T19:51:56.294Z,6.97
2018-04-16T19:54:25.042Z,4.93
2018-04-16T19:56:59.071Z,6.00
2018-04-16T19:59:27.705Z,7.77
2018-04-16T20:02:00.886Z,5.93
2018-04-16T20:04:28.854Z,5.63
2018-04-16T20:06:56.588Z,4.83
2018-04-16T20:09:25.039Z,5.83
2018-04-16T20:11:52.745Z,5.40
2018-04-16T20:14:20.406Z,6.33
2018-04-16T20:16:48.059Z,5.23
2018-04-16T20:19:16.498Z,5.77
2018-04-16T20:21:44.123Z,7.03
2018-04-16T20:24:11.778Z,5.33
2018-04-16T20:26:39.429Z,5.03
2018-04-16T20:29:07.075Z,5.30
2018-04-16T20:31:35.530Z,9.60
2018-04-16T20:34:03.223Z,5.80
2018-04-16T20:36:31.729Z,5.83
2018-04-16T20:39:01.878Z,6.10
2018-04-16T20:41:31.832Z,5.63
2018-04-16T20:43:59.596Z,8.43
2018-04-16T20:46:29.484Z,5.60
2018-04-16T20:48:57.593Z,6.50
2018-04-16T20:51:26.622Z,8.03
2018-04-16T20:53:55.261Z,7.57
2018-04-16T20:56:23.437Z,6.33
2018-04-16T20:58:52.372Z,7.23
2018-04-16T21:01:20.242Z,7.27
2018-04-16T21:03:48.172Z,9.43
2018-04-16T21:06:33.652Z,7.73
2018-04-16T21:09:02.273Z,8.13
2018-04-16T21:11:30.339Z,10.00
2018-04-16T21:13:58.993Z,9.10
2018-04-16T21:16:28.642Z,7.80
2018-04-16T21:18:56.401Z,7.93
2018-04-16T21:21:24.293Z,9.53
2018-04-16T21:23:53.317Z,9.30
2018-04-16T21:26:21.575Z,8.63
2018-04-16T21:28:49.535Z,7.97
2018-04-16T21:31:17.579Z,8.53
2018-04-16T21:33:46.688Z,11.60
2018-04-16T21:36:15.011Z,10.37
2018-04-16T21:38:43.062Z,8.13
2018-04-16T21:41:12.697Z,8.53
2018-04-16T21:43:40.802Z,9.93
2018-04-16T21:46:08.525Z,8.50
2018-04-16T21:48:36.189Z,8.83
2018-04-16T21:51:03.942Z,11.50
2018-04-16T21:53:31.624Z,9.50
2018-04-16T21:55:59.257Z,10.90
2018-04-16T21:58:26.919Z,11.50
2018-04-16T22:00:54.583Z,10.77
2018-04-16T22:03:22.227Z,9.70
2018-04-16T22:05:49.881Z,9.10
2018-04-16T22:08:17.563Z,12.17
2018-04-16T22:10:45.186Z,11.83
2018-04-16T22:13:12.883Z,11.17
2018-04-16T22:15:40.543Z,14.20
2018-04-16T22:18:08.213Z,19.70
2018-04-16T22:20:35.917Z,15.73
2018-04-16T22:23:03.612Z,10.30
2018-04-16T22:25:31.247Z,9.70
2018-04-16T22:27:58.915Z,9.03
2018-04-16T22:30:26.691Z,10.00
2018-04-16T22:32:54.318Z,8.80
2018-04-16T22:35:21.981Z,8.37
2018-04-16T22:37:49.666Z,12.70
2018-04-16T22:40:17.286Z,9.97
2018-04-16T22:42:45.716Z,9.47
2018-04-16T22:45:13.379Z,9.50
2018-04-16T22:47:41.035Z,9.03
2018-04-16T22:50:08.683Z,8.93
2018-04-16T22:52:36.332Z,8.37
2018-04-16T22:55:04.030Z,7.43
2018-04-16T22:57:31.688Z,8.13
2018-04-16T22:59:59.348Z,9.17
2018-04-16T23:02:26.974Z,14.03
2018-04-16T23:04:54.619Z,9.67
2018-04-16T23:07:22.261Z,9.00
2018-04-16T23:09:50.650Z,9.47
2018-04-16T23:12:18.349Z,9.73
2018-04-16T23:14:46.066Z,12.00
2018-04-16T23:17:14.467Z,10.37
2018-04-16T23:19:42.136Z,13.03
2018-04-16T23:22:09.867Z,9.87
2018-04-16T23:24:38.245Z,11.13
2018-04-16T23:27:06.829Z,12.40
2018-04-16T23:29:35.445Z,9.30
2018-04-16T23:32:03.073Z,8.30
2018-04-16T23:34:30.723Z,8.70
2018-04-16T23:36:58.412Z,9.33
2018-04-16T23:39:26.043Z,10.10
2018-04-16T23:41:54.473Z,9.97
2018-04-16T23:44:22.147Z,11.43
2018-04-16T23:46:49.782Z,13.10
2018-04-16T23:49:17.444Z,9.80
2018-04-16T23:51:45.107Z,10.93
2018-04-16T23:54:12.711Z,9.40
2018-04-16T23:56:40.385Z,13.90
2018-04-16T23:59:08.035Z,13.20
